Time;durP1;ratioP1;P1;durP2;ratioP2;P2;SDS_P1;SDS_P2;PMS_P1;PMS_P2;Temp;Humidity;BMP_temperature;BMP_pressure;BME280_temperature;BME280_humidity;BME280_pressure;Samples;Min_cycle;Max_cycle;Signal;HPM_P1;HPM_P2
2024/02/11 00:01:30;;;;;;;;;;;;;;;4.20;100.00;98155.74;109425;1253;69929;-70
2024/02/11 00:03:57;;;;;;;;;;;;;;;4.28;100.00;98158.49;109429;1253;72972;-70
2024/02/11 00:06:25;;;;;;;;;;;;;;;4.29;100.00;98158.61;109447;1253;59575;-69
2024/02/11 00:08:52;;;;;;;;;;;;;;;4.33;100.00;98158.70;109420;1254;60685;-70
2024/02/11 00:11:21;;;;;;;;;;;;;;;4.29;100.00;98158.14;109174;1260;74897;-70
2024/02/11 00:13:48;;;;;;;;;;;;;;;4.22;100.00;98157.37;109624;1252;70111;-69
2024/02/11 00:16:16;;;;;;;;;;;;;;;4.25;100.00;98154.90;109663;1252;71847;-69
2024/02/11 00:18:43;;;;;;;;;;;;;;;4.28;100.00;98155.36;109582;1254;62434;-70
2024/02/11 00:21:13;;;;;;;;;;;;;;;4.22;100.00;98149.02;109581;1254;60097;-69
2024/02/11 00:23:44;;;;;;;;;;;;;;;4.15;100.00;98148.23;109627;1253;74425;-69
2024/02/11 00:26:12;;;;;;;;;;;;;;;4.23;100.00;98145.57;109613;1254;69436;-69
2024/02/11 00:28:41;;;;;;;;;;;;;;;4.28;100.00;98150.16;109604;1253;74031;-69
2024/02/11 00:31:09;;;;;;;;;;;;;;;4.34;100.00;98148.58;109629;1253;59405;-69
2024/02/11 00:33:39;;;;;;;;;;;;;;;4.27;100.00;98139.68;109655;1253;59917;-69
2024/02/11 00:36:07;;;;;;;;;;;;;;;4.34;100.00;98140.71;109582;1252;76776;-69
2024/02/11 00:38:35;;;;;;;;;;;;;;;4.24;100.00;98139.96;109620;1253;69280;-70
2024/02/11 00:41:04;;;;;;;;;;;;;;;4.38;100.00;98144.16;109602;1254;72430;-70
2024/02/11 00:43:31;;;;;;;;;;;;;;;4.39;100.00;98142.31;109292;1254;62528;-70
2024/02/11 00:45:59;;;;;;;;;;;;;;;4.40;100.00;98150.58;109593;1253;58906;-70
2024/02/11 00:48:28;;;;;;;;;;;;;;;4.34;100.00;98146.77;109618;1253;77684;-70
2024/02/11 00:50:56;;;;;;;;;;;;;;;4.43;100.00;98150.75;109419;1253;67629;-70
2024/02/11 00:53:25;;;;;;;;;;;;;;;4.44;100.00;98151.80;109464;1254;71463;-70
2024/02/11 00:55:53;;;;;;;;;;;;;;;4.47;100.00;98147.73;109384;1254;62489;-70
2024/02/11 00:58:21;;;;;;;;;;;;;;;4.42;100.00;98149.70;109286;1254;59871;-70
2024/02/11 01:00:49;;;;;;;;;;;;;;;4.44;100.00;98152.52;109321;1254;75235;-70
2024/02/11 01:03:16;;;;;;;;;;;;;;;4.33;100.00;98154.84;109371;1253;68945;-69
2024/02/11 01:05:44;;;;;;;;;;;;;;;4.30;100.00;98152.04;109344;1253;71359;-70
2024/02/11 01:08:12;;;;;;;;;;;;;;;4.35;100.00;98150.08;109381;1254;63177;-71
2024/02/11 01:10:39;;;;;;;;;;;;;;;4.35;100.00;98152.95;109472;1254;60387;-70
2024/02/11 01:13:07;;;;;;;;;;;;;;;4.30;100.00;98147.90;109583;1253;73102;-70
2024/02/11 01:15:35;;;;;;;;;;;;;;;4.31;100.00;98150.45;109426;1254;67981;-70
2024/02/11 01:18:03;;;;;;;;;;;;;;;4.36;100.00;98152.21;109368;1254;71985;-70
2024/02/11 01:20:31;;;;;;;;;;;;;;;4.30;100.00;98145.02;109516;1254;59395;-70
2024/02/11 01:23:00;;;;;;;;;;;;;;;4.38;100.00;98143.58;109532;1253;60802;-70
2024/02/11 01:25:28;;;;;;;;;;;;;;;4.42;100.00;98144.80;109418;1255;74788;-70
2024/02/11 01:27:55;;;;;;;;;;;;;;;4.42;100.00;98142.95;109534;1253;69544;-70
2024/02/11 01:30:24;;;;;;;;;;;;;;;4.44;100.00;98148.86;109401;1259;74506;-70
2024/02/11 01:32:57;;;;;;;;;;;;;;;4.36;100.00;98152.27;109516;1254;61030;-70
2024/02/11 01:35:25;;;;;;;;;;;;;;;4.33;100.00;98155.27;109534;1254;59234;-70
2024/02/11 01:37:53;;;;;;;;;;;;;;;4.41;100.00;98154.98;109444;1253;74713;-70
2024/02/11 01:40:21;;;;;;;;;;;;;;;4.37;100.00;98151.75;109503;1254;67972;-69
2024/02/11 01:42:50;;;;;;;;;;;;;;;4.37;100.00;98149.78;109385;1254;72579;-69
2024/02/11 01:45:17;;;;;;;;;;;;;;;4.37;100.00;98153.67;109450;1254;59489;-70
2024/02/11 01:47:45;;;;;;;;;;;;;;;4.43;100.00;98157.45;109204;1254;62045;-70
2024/02/11 01:50:17;;;;;;;;;;;;;;;4.34;100.00;98156.88;109534;1253;73386;-70
2024/02/11 01:52:46;;;;;;;;;;;;;;;4.37;100.00;98155.89;109154;1260;69721;-70
2024/02/11 01:55:17;;;;;;;;;;;;;;;4.49;100.00;98153.81;109058;1254;73238;-70
2024/02/11 01:57:44;;;;;;;;;;;;;;;4.50;100.00;98155.94;109479;1254;60187;-70
2024/02/11 02:00:12;;;;;;;;;;;;;;;4.44;100.00;98155.70;109319;1254;62082;-70
2024/02/11 02:02:41;;;;;;;;;;;;;;;4.47;100.00;98148.78;109290;1254;74079;-70
2024/02/11 02:05:08;;;;;;;;;;;;;;;4.40;100.00;98149.23;109330;1254;70274;-70
2024/02/11 02:07:36;;;;;;;;;;;;;;;4.44;100.00;98144.19;109292;1254;71312;-69
2024/02/11 02:10:04;;;;;;;;;;;;;;;4.34;100.00;98147.89;109281;1254;59769;-70
2024/02/11 02:12:32;;;;;;;;;;;;;;;4.20;100.00;98152.86;109065;1261;59655;-70
2024/02/11 02:14:59;;;;;;;;;;;;;;;4.15;100.00;98150.80;109366;1254;74570;-69
2024/02/11 02:17:27;;;;;;;;;;;;;;;4.36;100.00;98149.71;109491;1254;68519;-69
2024/02/11 02:19:54;;;;;;;;;;;;;;;4.03;100.00;98147.44;109408;1253;72215;-69
2024/02/11 02:22:22;;;;;;;;;;;;;;;3.90;100.00;98144.34;109377;1254;60193;-69
2024/02/11 02:24:49;;;;;;;;;;;;;;;3.89;100.00;98143.54;109464;1254;59976;-69
2024/02/11 02:27:17;;;;;;;;;;;;;;;4.06;100.00;98142.17;109503;1254;76904;-70
2024/02/11 02:29:44;;;;;;;;;;;;;;;4.23;100.00;98144.36;109456;1253;67144;-69
2024/02/11 02:32:12;;;;;;;;;;;;;;;4.11;100.00;98141.77;109312;1253;72284;-69
2024/02/11 02:34:40;;;;;;;;;;;;;;;4.01;100.00;98148.11;109497;1254;63117;-69
2024/02/11 02:37:08;;;;;;;;;;;;;;;3.92;100.00;98150.43;109472;1253;60927;-70
2024/02/11 02:39:40;;;;;;;;;;;;;;;3.86;100.00;98146.74;109464;1254;75287;-69
2024/02/11 02:42:08;;;;;;;;;;;;;;;3.83;100.00;98145.91;109541;1254;67581;-69
2024/02/11 02:44:37;;;;;;;;;;;;;;;3.85;100.00;98143.60;109455;1254;72000;-69
2024/02/11 02:47:05;;;;;;;;;;;;;;;3.88;100.00;98138.96;109540;1253;61983;-69
2024/02/11 02:49:34;;;;;;;;;;;;;;;3.90;100.00;98135.96;109608;1254;59050;-69
2024/02/11 02:52:02;;;;;;;;;;;;;;;4.00;100.00;98135.58;109421;1254;74661;-69
2024/02/11 02:54:30;;;;;;;;;;;;;;;4.13;100.00;98142.16;109276;1254;67870;-69
2024/02/11 02:56:58;;;;;;;;;;;;;;;4.24;100.00;98142.24;109318;1254;73998;-69
2024/02/11 02:59:26;;;;;;;;;;;;;;;4.14;100.00;98146.42;109060;1256;60833;-69
2024/02/11 03:02:01;;;;;;;;;;;;;;;4.13;100.00;98143.48;109306;1254;59678;-69
2024/02/11 03:04:29;;;;;;;;;;;;;;;4.14;100.00;98149.50;109302;1254;73432;-69
2024/02/11 03:06:57;;;;;;;;;;;;;;;4.27;100.00;98157.85;109269;1257;66449;-69
2024/02/11 03:09:24;;;;;;;;;;;;;;;4.11;100.00;98151.00;109203;1257;72622;-69
2024/02/11 03:11:52;;;;;;;;;;;;;;;4.23;100.00;98153.08;109122;1257;61518;-69
2024/02/11 03:14:20;;;;;;;;;;;;;;;4.29;100.00;98152.83;109069;1257;58929;-69
2024/02/11 03:16:49;;;;;;;;;;;;;;;4.38;100.00;98158.46;109112;1257;74961;-69
2024/02/11 03:19:17;;;;;;;;;;;;;;;4.48;100.00;98166.02;108918;1257;68024;-69
2024/02/11 03:21:48;;;;;;;;;;;;;;;4.34;100.00;98165.16;109065;1259;73665;-69
2024/02/11 03:24:20;;;;;;;;;;;;;;;4.37;100.00;98160.41;109216;1254;60894;-69
2024/02/11 03:26:48;;;;;;;;;;;;;;;4.30;100.00;98160.70;109244;1254;59107;-69
2024/02/11 03:29:19;;;;;;;;;;;;;;;4.37;100.00;98167.42;109123;1254;74585;-69
2024/02/11 03:31:47;;;;;;;;;;;;;;;4.39;100.00;98158.08;109393;1254;69310;-68
2024/02/11 03:34:15;;;;;;;;;;;;;;;4.42;100.00;98155.38;109243;1254;72390;-69
2024/02/11 03:36:43;;;;;;;;;;;;;;;4.32;100.00;98160.45;109347;1257;59462;-69
2024/02/11 03:39:11;;;;;;;;;;;;;;;4.34;100.00;98156.66;109455;1254;59660;-69
2024/02/11 03:41:39;;;;;;;;;;;;;;;4.20;100.00;98150.21;109447;1254;73976;-69
2024/02/11 03:44:07;;;;;;;;;;;;;;;4.22;100.00;98158.38;109521;1253;70216;-69
2024/02/11 03:46:34;;;;;;;;;;;;;;;4.22;100.00;98159.17;109509;1254;72067;-69
2024/02/11 03:49:02;;;;;;;;;;;;;;;4.17;100.00;98152.73;109383;1254;63155;-69
2024/02/11 03:51:30;;;;;;;;;;;;;;;4.13;100.00;98146.04;109393;1254;59064;-69
2024/02/11 03:54:01;;;;;;;;;;;;;;;4.13;100.00;98157.40;109451;1254;74774;-69
2024/02/11 03:56:29;;;;;;;;;;;;;;;4.34;100.00;98165.99;109423;1253;70165;-69
2024/02/11 03:58:57;;;;;;;;;;;;;;;4.24;100.00;98162.27;109411;1254;72939;-69
2024/02/11 04:01:25;;;;;;;;;;;;;;;4.21;100.00;98156.38;109460;1254;62843;-69
2024/02/11 04:03:53;;;;;;;;;;;;;;;4.22;100.00;98161.02;109403;1254;58877;-69
2024/02/11 04:06:20;;;;;;;;;;;;;;;4.20;100.00;98154.52;109406;1253;73320;-69
2024/02/11 04:08:51;;;;;;;;;;;;;;;4.09;100.00;98149.81;109442;1253;67584;-69
2024/02/11 04:11:20;;;;;;;;;;;;;;;4.08;100.00;98153.46;109520;1254;73759;-67
2024/02/11 04:13:48;;;;;;;;;;;;;;;3.99;100.00;98147.50;109515;1254;59787;-68
2024/02/11 04:16:16;;;;;;;;;;;;;;;3.93;100.00;98142.70;109515;1254;59254;-70
2024/02/11 04:18:47;;;;;;;;;;;;;;;4.01;100.00;98151.36;109563;1254;74910;-69
2024/02/11 04:21:16;;;;;;;;;;;;;;;4.05;100.00;98148.16;109461;1253;70169;-68
2024/02/11 04:23:46;;;;;;;;;;;;;;;4.18;100.00;98147.65;109429;1254;71365;-67
2024/02/11 04:26:15;;;;;;;;;;;;;;;4.14;100.00;98147.34;109163;1252;59714;-69
2024/02/11 04:28:45;;;;;;;;;;;;;;;4.20;100.00;98150.27;109167;1254;59052;-69
2024/02/11 04:31:13;;;;;;;;;;;;;;;4.18;100.00;98147.38;109408;1253;74928;-68
2024/02/11 04:33:40;;;;;;;;;;;;;;;4.18;100.00;98141.11;109463;1253;69831;-69
2024/02/11 04:36:11;;;;;;;;;;;;;;;4.26;100.00;98139.77;109430;1253;73331;-69
2024/02/11 04:38:39;;;;;;;;;;;;;;;4.16;100.00;98135.94;109372;1254;59065;-68
2024/02/11 04:41:06;;;;;;;;;;;;;;;4.02;100.00;98129.71;109519;1253;60801;-67
2024/02/11 04:43:34;;;;;;;;;;;;;;;4.01;100.00;98131.91;109506;1254;76955;-66
2024/02/11 04:46:05;;;;;;;;;;;;;;;4.00;100.00;98129.46;109428;1254;66503;-65
2024/02/11 04:48:32;;;;;;;;;;;;;;;4.07;100.00;98138.58;109401;1253;71265;-65
2024/02/11 04:51:00;;;;;;;;;;;;;;;4.23;100.00;98142.76;109423;1254;60161;-67
2024/02/11 04:53:29;;;;;;;;;;;;;;;4.11;100.00;98135.60;109415;1253;60089;-67
2024/02/11 04:55:57;;;;;;;;;;;;;;;4.13;100.00;98137.06;109549;1253;76952;-67
2024/02/11 04:58:31;;;;;;;;;;;;;;;4.18;100.00;98139.56;109412;1254;67168;-67
2024/02/11 05:00:58;;;;;;;;;;;;;;;3.92;100.00;98138.27;109399;1254;73606;-67
2024/02/11 05:03:27;;;;;;;;;;;;;;;3.72;100.00;98141.08;109401;1254;60709;-65
2024/02/11 05:05:55;;;;;;;;;;;;;;;3.97;100.00;98123.15;109536;1253;59131;-67
2024/02/11 05:08:24;;;;;;;;;;;;;;;4.06;100.00;98133.10;109435;1253;73901;-67
2024/02/11 05:10:53;;;;;;;;;;;;;;;4.11;100.00;98135.77;109564;1253;69070;-67
2024/02/11 05:13:27;;;;;;;;;;;;;;;3.95;100.00;98131.58;109432;1253;72533;-66
2024/02/11 05:15:59;;;;;;;;;;;;;;;4.06;100.00;98134.46;109553;1251;60901;-65
2024/02/11 05:18:29;;;;;;;;;;;;;;;4.07;100.00;98135.77;109605;1251;59083;-65
2024/02/11 05:20:57;;;;;;;;;;;;;;;4.16;100.00;98133.86;109415;1251;201314;-65
2024/02/11 05:23:25;;;;;;;;;;;;;;;4.18;100.00;98133.61;109189;1254;68540;-67
2024/02/11 05:25:53;;;;;;;;;;;;;;;4.23;100.00;98141.27;109253;1254;74905;-67
2024/02/11 05:28:20;;;;;;;;;;;;;;;4.20;100.00;98140.02;109261;1254;60254;-68
2024/02/11 05:30:48;;;;;;;;;;;;;;;4.25;100.00;98144.02;109279;1254;60336;-66
2024/02/11 05:33:18;;;;;;;;;;;;;;;4.28;100.00;98145.22;109276;1254;73984;-68
2024/02/11 05:35:48;;;;;;;;;;;;;;;4.32;100.00;98149.45;109259;1254;68039;-68
2024/02/11 05:38:19;;;;;;;;;;;;;;;4.30;100.00;98145.09;109302;1254;73259;-68
2024/02/11 05:40:50;;;;;;;;;;;;;;;4.23;100.00;98149.89;109216;1255;63088;-68
2024/02/11 05:43:21;;;;;;;;;;;;;;;4.17;100.00;98157.88;109256;1254;62068;-68
2024/02/11 05:45:49;;;;;;;;;;;;;;;4.20;100.00;98159.95;109310;1254;74610;-68
2024/02/11 05:48:17;;;;;;;;;;;;;;;4.22;100.00;98156.56;109100;1258;68486;-68
2024/02/11 05:50:46;;;;;;;;;;;;;;;4.22;100.00;98163.63;108965;1259;71780;-68
2024/02/11 05:53:15;;;;;;;;;;;;;;;4.23;100.00;98162.15;108960;1259;61780;-68
2024/02/11 05:55:42;;;;;;;;;;;;;;;3.98;100.00;98164.73;108965;1259;61140;-68
2024/02/11 05:58:10;;;;;;;;;;;;;;;3.66;100.00;98162.91;108999;1259;73116;-68
2024/02/11 06:00:37;;;;;;;;;;;;;;;3.76;100.00;98160.50;109095;1254;69970;-69
2024/02/11 06:03:05;;;;;;;;;;;;;;;3.77;100.00;98155.16;109271;1254;73314;-68
2024/02/11 06:05:32;;;;;;;;;;;;;;;3.77;100.00;98147.35;109237;1254;62244;-68
2024/02/11 06:08:00;;;;;;;;;;;;;;;3.79;100.00;98142.39;109150;1254;59170;-68
2024/02/11 06:10:30;;;;;;;;;;;;;;;3.75;100.00;98141.21;109094;1256;73780;-68
2024/02/11 06:12:58;;;;;;;;;;;;;;;3.50;100.00;98139.05;109144;1256;67064;-68
2024/02/11 06:15:27;;;;;;;;;;;;;;;3.47;100.00;98135.78;109120;1257;74916;-68
2024/02/11 06:17:58;;;;;;;;;;;;;;;3.62;100.00;98139.50;109110;1256;59387;-69
2024/02/11 06:20:26;;;;;;;;;;;;;;;3.64;100.00;98141.81;109150;1256;60838;-69
2024/02/11 06:22:54;;;;;;;;;;;;;;;3.86;100.00;98132.56;109139;1256;74541;-69
2024/02/11 06:25:24;;;;;;;;;;;;;;;3.79;100.00;98130.77;109238;1251;70143;-69
2024/02/11 06:27:53;;;;;;;;;;;;;;;3.69;100.00;98130.47;109186;1258;73721;-69
2024/02/11 06:30:21;;;;;;;;;;;;;;;3.63;100.00;98113.92;109607;1252;59987;-69
2024/02/11 06:32:55;;;;;;;;;;;;;;;3.62;100.00;98122.83;109603;1251;59479;-69
2024/02/11 06:35:24;;;;;;;;;;;;;;;3.69;100.00;98133.39;109598;1251;74132;-69
2024/02/11 06:37:52;;;;;;;;;;;;;;;3.80;100.00;98129.89;109230;1251;69046;-69
2024/02/11 06:40:25;;;;;;;;;;;;;;;3.78;100.00;98132.09;109603;1253;71728;-69
2024/02/11 06:42:54;;;;;;;;;;;;;;;3.95;100.00;98136.39;109578;1253;61350;-69
2024/02/11 06:45:22;;;;;;;;;;;;;;;3.94;100.00;98135.76;109608;1251;60466;-69
2024/02/11 06:47:52;;;;;;;;;;;;;;;4.03;100.00;98139.97;109592;1251;75889;-69
2024/02/11 06:50:21;;;;;;;;;;;;;;;4.00;100.00;98140.35;109607;1251;67997;-69
2024/02/11 06:52:50;;;;;;;;;;;;;;;4.08;100.00;98135.58;109506;1253;75027;-69
2024/02/11 06:55:19;;;;;;;;;;;;;;;4.15;100.00;98130.71;109618;1253;60934;-69
2024/02/11 06:57:48;;;;;;;;;;;;;;;4.14;100.00;98140.27;109516;1253;60565;-69
2024/02/11 07:00:18;;;;;;;;;;;;;;;4.15;100.00;98145.23;109610;1251;75638;-69
2024/02/11 07:02:47;;;;;;;;;;;;;;;4.20;100.00;98141.52;109532;1251;68601;-69
2024/02/11 07:05:15;;;;;;;;;;;;;;;4.22;100.00;98152.15;109583;1251;72950;-69
2024/02/11 07:07:44;;;;;;;;;;;;;;;4.25;100.00;98149.31;109488;1253;61646;-69
2024/02/11 07:10:13;;;;;;;;;;;;;;;4.44;100.00;98144.50;109557;1251;59722;-70
2024/02/11 07:12:44;;;;;;;;;;;;;;;4.49;100.00;98152.81;109658;1251;74469;-69
2024/02/11 07:15:13;;;;;;;;;;;;;;;4.48;100.00;98164.95;109591;1251;70647;-69
2024/02/11 07:17:42;;;;;;;;;;;;;;;4.57;100.00;98160.59;109488;1251;70573;-69
2024/02/11 07:20:14;;;;;;;;;;;;;;;4.51;100.00;98170.47;109581;1253;59301;-70
2024/02/11 07:22:43;;;;;;;;;;;;;;;4.51;100.00;98176.05;109544;1251;59077;-71
2024/02/11 07:25:12;;;;;;;;;;;;;;;4.50;100.00;98168.48;109254;1251;75785;-71
2024/02/11 07:27:40;;;;;;;;;;;;;;;4.49;100.00;98175.48;109537;1251;67810;-68
2024/02/11 07:30:11;;;;;;;;;;;;;;;4.59;100.00;98180.91;109614;1251;70607;-69
2024/02/11 07:32:42;;;;;;;;;;;;;;;4.62;100.00;98182.45;109627;1253;60847;-69
2024/02/11 07:35:12;;;;;;;;;;;;;;;4.62;100.00;98183.55;109653;1251;59825;-69
2024/02/11 07:37:41;;;;;;;;;;;;;;;4.69;100.00;98181.35;109442;1251;74246;-73
2024/02/11 07:40:11;;;;;;;;;;;;;;;4.83;100.00;98191.98;109584;1251;66534;-68
2024/02/11 07:42:40;;;;;;;;;;;;;;;4.77;100.00;98182.46;109543;1251;75000;-69
2024/02/11 07:45:08;;;;;;;;;;;;;;;4.66;100.00;98183.44;109302;1254;60043;-69
2024/02/11 07:47:37;;;;;;;;;;;;;;;4.79;100.00;98178.91;109602;1251;58961;-69
2024/02/11 07:50:05;;;;;;;;;;;;;;;4.84;100.00;98180.55;109581;1251;73171;-69
2024/02/11 07:52:33;;;;;;;;;;;;;;;4.78;100.00;98186.83;109536;1251;69436;-69
2024/02/11 07:55:03;;;;;;;;;;;;;;;4.63;100.00;98190.15;109508;1251;73519;-69
2024/02/11 07:57:30;;;;;;;;;;;;;;;4.67;100.00;98189.84;109579;1251;59833;-71
2024/02/11 07:59:58;;;;;;;;;;;;;;;4.60;100.00;98187.09;109220;1251;60937;-72
2024/02/11 08:02:26;;;;;;;;;;;;;;;4.73;100.00;98182.09;109545;1251;76217;-71
2024/02/11 08:04:54;;;;;;;;;;;;;;;4.74;100.00;98171.52;109564;1251;69636;-70
2024/02/11 08:07:21;;;;;;;;;;;;;;;4.69;100.00;98170.77;109566;1254;74730;-70
2024/02/11 08:09:49;;;;;;;;;;;;;;;4.82;100.00;98176.08;109615;1251;62410;-71
2024/02/11 08:12:17;;;;;;;;;;;;;;;4.90;100.00;98170.69;109586;1251;58873;-70
2024/02/11 08:14:44;;;;;;;;;;;;;;;4.96;100.00;98168.24;109224;1251;76965;-70
2024/02/11 08:17:12;;;;;;;;;;;;;;;4.97;100.00;98166.32;109642;1251;68406;-70
2024/02/11 08:19:40;;;;;;;;;;;;;;;5.08;100.00;98171.45;109236;1254;71068;-70
2024/02/11 08:22:08;;;;;;;;;;;;;;;5.11;100.00;98174.60;109545;1251;63051;-70
2024/02/11 08:24:36;;;;;;;;;;;;;;;5.25;100.00;98178.13;109393;1254;58967;-70
2024/02/11 08:27:03;;;;;;;;;;;;;;;5.28;100.00;98173.85;109249;1256;74742;-70
2024/02/11 08:29:31;;;;;;;;;;;;;;;5.21;100.00;98179.38;109323;1254;71028;-69
2024/02/11 08:31:58;;;;;;;;;;;;;;;5.26;100.00;98182.30;109274;1254;74998;-69
2024/02/11 08:34:26;;;;;;;;;;;;;;;5.35;100.00;98189.94;109278;1256;61082;-69
2024/02/11 08:36:54;;;;;;;;;;;;;;;5.37;100.00;98192.24;109403;1254;61627;-69
2024/02/11 08:39:25;;;;;;;;;;;;;;;5.37;100.00;98192.18;109191;1254;74793;-69
2024/02/11 08:41:53;;;;;;;;;;;;;;;5.38;100.00;98198.42;109374;1254;67795;-70
2024/02/11 08:44:21;;;;;;;;;;;;;;;5.40;100.00;98204.29;109383;1254;73094;-70
2024/02/11 08:46:49;;;;;;;;;;;;;;;5.44;100.00;98209.21;109277;1256;61351;-70
2024/02/11 08:49:17;;;;;;;;;;;;;;;5.55;100.00;98203.52;109183;1254;61457;-70
2024/02/11 08:51:45;;;;;;;;;;;;;;;5.62;100.00;98204.63;109284;1254;76032;-69
2024/02/11 08:54:13;;;;;;;;;;;;;;;5.74;100.00;98207.02;109280;1254;70150;-70
2024/02/11 08:56:40;;;;;;;;;;;;;;;5.71;100.00;98199.64;109388;1253;72233;-70
2024/02/11 08:59:08;;;;;;;;;;;;;;;5.70;100.00;98198.58;109337;1254;58953;-69
2024/02/11 09:01:36;;;;;;;;;;;;;;;5.81;100.00;98196.25;109600;1253;59068;-70
2024/02/11 09:04:06;;;;;;;;;;;;;;;6.03;100.00;98204.05;109572;1252;74282;-70
2024/02/11 09:06:34;;;;;;;;;;;;;;;6.14;100.00;98204.38;109661;1252;67332;-70
2024/02/11 09:09:02;;;;;;;;;;;;;;;6.12;100.00;98205.27;109628;1252;74111;-70
2024/02/11 09:11:30;;;;;;;;;;;;;;;6.13;100.00;98200.07;109203;1254;62641;-70
2024/02/11 09:13:58;;;;;;;;;;;;;;;6.10;100.00;98198.71;109554;1253;61660;-69
2024/02/11 09:16:26;;;;;;;;;;;;;;;6.14;100.00;98196.55;109561;1253;74753;-70
2024/02/11 09:18:54;;;;;;;;;;;;;;;6.36;100.00;98188.77;109471;1252;70716;-69
2024/02/11 09:21:21;;;;;;;;;;;;;;;6.40;100.00;98193.92;109206;1254;72321;-70
2024/02/11 09:23:49;;;;;;;;;;;;;;;6.34;100.00;98191.64;109226;1254;59499;-70
2024/02/11 09:26:16;;;;;;;;;;;;;;;6.33;100.00;98192.72;109411;1253;61194;-69
2024/02/11 09:28:45;;;;;;;;;;;;;;;6.21;100.00;98195.73;109469;1253;75639;-69
2024/02/11 09:31:12;;;;;;;;;;;;;;;6.10;100.00;98193.88;109566;1252;67961;-69
2024/02/11 09:33:40;;;;;;;;;;;;;;;6.18;100.00;98199.94;109491;1252;71576;-69
2024/02/11 09:36:08;;;;;;;;;;;;;;;6.27;100.00;98205.04;109513;1253;61435;-69
2024/02/11 09:38:35;;;;;;;;;;;;;;;6.26;100.00;98204.81;109468;1252;62048;-69
2024/02/11 09:41:04;;;;;;;;;;;;;;;6.28;100.00;98198.27;109547;1253;74485;-69
2024/02/11 09:43:31;;;;;;;;;;;;;;;6.35;100.00;98202.68;109545;1252;69223;-69
2024/02/11 09:45:59;;;;;;;;;;;;;;;6.48;100.00;98204.88;109552;1252;73470;-69
2024/02/11 09:48:26;;;;;;;;;;;;;;;6.58;100.00;98208.50;109515;1253;61073;-69
2024/02/11 09:50:55;;;;;;;;;;;;;;;6.56;100.00;98204.59;109287;1251;59035;-68
2024/02/11 09:53:22;;;;;;;;;;;;;;;6.72;100.00;98203.90;109603;1251;74300;-68
2024/02/11 09:55:51;;;;;;;;;;;;;;;6.71;100.00;98201.18;109560;1251;70320;-68
2024/02/11 09:58:19;;;;;;;;;;;;;;;6.63;100.00;98200.09;109564;1251;74349;-69
2024/02/11 10:00:46;;;;;;;;;;;;;;;6.56;100.00;98192.00;109533;1253;63008;-68
2024/02/11 10:03:16;;;;;;;;;;;;;;;6.47;100.00;98185.14;109232;1251;61190;-68
2024/02/11 10:05:46;;;;;;;;;;;;;;;6.40;100.00;98186.66;109608;1251;75800;-68
2024/02/11 10:08:14;;;;;;;;;;;;;;;6.30;100.00;98184.16;109562;1251;67089;-69
2024/02/11 10:10:43;;;;;;;;;;;;;;;6.17;100.00;98174.08;109588;1252;72145;-68
2024/02/11 10:13:19;;;;;;;;;;;;;;;6.02;100.00;98167.66;109510;1253;63177;-69
2024/02/11 10:15:47;;;;;;;;;;;;;;;6.09;100.00;98171.21;109515;1253;59065;-68
2024/02/11 10:18:17;;;;;;;;;;;;;;;6.18;100.00;98176.39;109549;1253;74667;-68
2024/02/11 10:20:48;;;;;;;;;;;;;;;6.08;100.00;98180.64;109559;1253;69447;-68
2024/02/11 10:23:16;;;;;;;;;;;;;;;5.99;100.00;98171.00;109431;1253;71872;-68
2024/02/11 10:25:45;;;;;;;;;;;;;;;6.01;100.00;98179.48;109509;1253;62349;-68
2024/02/11 10:28:13;;;;;;;;;;;;;;;5.93;100.00;98182.93;109508;1253;59133;-68
2024/02/11 10:30:41;;;;;;;;;;;;;;;5.98;100.00;98191.61;109564;1253;74232;-68
2024/02/11 10:33:09;;;;;;;;;;;;;;;6.01;100.00;98192.89;109566;1253;69134;-69
2024/02/11 10:35:37;;;;;;;;;;;;;;;6.18;100.00;98193.48;109517;1253;73102;-69
2024/02/11 10:38:07;;;;;;;;;;;;;;;6.18;100.00;98184.21;109192;1253;63239;-68
2024/02/11 10:40:38;;;;;;;;;;;;;;;5.99;100.00;98186.23;109548;1253;60875;-68
2024/02/11 10:43:06;;;;;;;;;;;;;;;5.93;100.00;98187.04;109561;1253;74160;-68
2024/02/11 10:45:35;;;;;;;;;;;;;;;5.78;100.00;98185.70;109376;1253;70598;-68
2024/02/11 10:48:03;;;;;;;;;;;;;;;6.04;100.00;98184.88;109513;1253;73057;-68
2024/02/11 10:50:34;;;;;;;;;;;;;;;5.88;100.00;98180.55;109418;1253;62414;-69
2024/02/11 10:53:05;;;;;;;;;;;;;;;6.06;100.00;98182.44;109450;1253;60554;-68
2024/02/11 10:55:45;;;;;;;;;;;;;;;5.97;100.00;98182.00;109463;1254;74778;-67
2024/02/11 10:58:14;;;;;;;;;;;;;;;5.94;100.00;98182.52;109483;1253;67648;-68
2024/02/11 11:00:42;;;;;;;;;;;;;;;5.98;100.00;98187.02;109449;1253;72792;-69
2024/02/11 11:03:10;;;;;;;;;;;;;;;5.83;100.00;98187.69;109369;1259;60656;-68
2024/02/11 11:05:38;;;;;;;;;;;;;;;6.02;100.00;98189.92;109411;1253;59964;-69
2024/02/11 11:08:07;;;;;;;;;;;;;;;6.02;100.00;98184.70;109388;1253;77074;-69
2024/02/11 11:10:36;;;;;;;;;;;;;;;6.02;100.00;98187.52;109408;1253;67999;-69
2024/02/11 11:13:04;;;;;;;;;;;;;;;5.99;100.00;98185.33;109446;1253;72648;-69
2024/02/11 11:15:32;;;;;;;;;;;;;;;6.11;100.00;98181.83;109575;1252;60656;-69
2024/02/11 11:18:00;;;;;;;;;;;;;;;6.19;100.00;98179.00;109432;1253;62126;-68
2024/02/11 11:20:29;;;;;;;;;;;;;;;6.13;100.00;98174.21;109615;1252;76021;-68
2024/02/11 11:22:57;;;;;;;;;;;;;;;6.11;100.00;98168.40;109603;1252;70119;-68
2024/02/11 11:25:25;;;;;;;;;;;;;;;6.20;100.00;98158.27;109447;1252;73391;-68
2024/02/11 11:28:03;;;;;;;;;;;;;;;6.32;100.00;98158.43;109593;1252;60769;-68
2024/02/11 11:30:31;;;;;;;;;;;;;;;6.49;100.00;98164.48;109445;1256;60117;-69
2024/02/11 11:33:02;;;;;;;;;;;;;;;6.44;100.00;98160.08;109372;1252;74824;-69
2024/02/11 11:35:30;;;;;;;;;;;;;;;6.40;100.00;98158.30;109649;1252;68574;-69
2024/02/11 11:37:58;;;;;;;;;;;;;;;6.45;100.00;98157.74;109593;1253;73457;-68
2024/02/11 11:40:28;;;;;;;;;;;;;;;6.51;100.00;98152.59;109368;1254;62944;-67
2024/02/11 11:42:55;;;;;;;;;;;;;;;6.48;100.00;98155.35;109608;1253;59075;-68
2024/02/11 11:45:23;;;;;;;;;;;;;;;6.65;100.00;98159.73;109618;1252;76041;-69
2024/02/11 11:47:51;;;;;;;;;;;;;;;6.75;100.00;98158.91;109558;1253;71046;-68
2024/02/11 11:50:19;;;;;;;;;;;;;;;6.64;100.00;98160.15;109448;1254;73702;-68
2024/02/11 11:52:57;;;;;;;;;;;;;;;6.57;100.00;98157.77;109288;1252;62030;-68
2024/02/11 11:55:25;;;;;;;;;;;;;;;6.62;100.00;98152.64;109433;1253;62149;-69
2024/02/11 11:57:58;;;;;;;;;;;;;;;6.61;100.00;98153.59;109406;1253;76921;-69
2024/02/11 12:00:26;;;;;;;;;;;;;;;6.66;100.00;98148.43;109158;1253;70671;-69
2024/02/11 12:02:55;;;;;;;;;;;;;;;6.69;100.00;98148.65;109245;1253;75047;-68
2024/02/11 12:05:27;;;;;;;;;;;;;;;6.72;100.00;98138.31;109434;1253;61304;-68
2024/02/11 12:07:55;;;;;;;;;;;;;;;6.44;100.00;98134.23;109285;1254;62004;-68
2024/02/11 12:10:22;;;;;;;;;;;;;;;6.60;100.00;98137.80;109433;1253;76306;-68
2024/02/11 12:12:50;;;;;;;;;;;;;;;6.74;100.00;98132.71;109504;1253;68391;-68
2024/02/11 12:15:17;;;;;;;;;;;;;;;6.68;100.00;98134.31;109307;1252;72084;-68
2024/02/11 12:17:47;;;;;;;;;;;;;;;6.47;100.00;98136.96;109527;1252;60098;-69
2024/02/11 12:20:15;;;;;;;;;;;;;;;6.75;100.00;98143.82;109597;1252;60463;-69
2024/02/11 12:22:42;;;;;;;;;;;;;;;6.86;100.00;98135.41;109302;1253;74351;-69
2024/02/11 12:25:14;;;;;;;;;;;;;;;6.71;100.00;98127.48;109579;1252;70512;-68
2024/02/11 12:27:42;;;;;;;;;;;;;;;6.82;100.00;98125.54;109240;1253;74740;-68
2024/02/11 12:30:11;;;;;;;;;;;;;;;6.67;100.00;98114.84;109575;1252;60700;-67
2024/02/11 12:32:38;;;;;;;;;;;;;;;6.68;100.00;98112.33;109634;1254;60834;-68
2024/02/11 12:35:06;;;;;;;;;;;;;;;6.54;100.00;98113.63;109604;1252;74717;-68
2024/02/11 12:37:34;;;;;;;;;;;;;;;6.54;100.00;98112.83;109567;1252;70670;-68
2024/02/11 12:40:02;;;;;;;;;;;;;;;6.44;100.00;98109.88;109625;1252;74868;-68
2024/02/11 12:42:30;;;;;;;;;;;;;;;6.44;100.00;98109.11;109263;1254;63115;-68